Terminal Aerodrome Forecast
Issued by NWS

Home | Current Version | Previous Version | Text Only | Print | Product List | Glossary On
Versions: 1 2 3 4 5 6 7 8 9 10 11 12 13 14 15 16 17 18 19 20 21 22 23 24 25
000
FTUS45 KREV 041733
TAFCXP
TAF
KCXP 041733Z 0418/0518 20010G20KT P6SM FEW070 FEW200
     FM042000 25019G30KT P6SM FEW070 SCT200
     FM050100 26012G20KT P6SM SCT200
     FM050500 27009KT P6SM SKC
     FM050900 VRB03KT P6SM SKC=

USA.gov is the U.S. government's official web portal to all federal, state and local government web resources and services.